Time;durP1;ratioP1;P1;durP2;ratioP2;P2;SDS_P1;SDS_P2;PMS_P1;PMS_P2;Temp;Humidity;BMP_temperature;BMP_pressure;BME280_temperature;BME280_humidity;BME280_pressure;Samples;Min_cycle;Max_cycle;Signal;HPM_P1;HPM_P2
2023/12/27 00:01:29;;;;;;;23.48;13.32;;;9.20;99.90;;;9.46;93.01;101922.66;4895692;29;20051;-70
2023/12/27 00:03:58;;;;;;;26.23;13.13;;;9.20;99.90;;;9.48;92.91;101924.47;4895965;29;20503;-69
2023/12/27 00:06:26;;;;;;;25.38;12.95;;;9.20;99.90;;;9.50;92.72;101920.09;4895876;29;20143;-71
2023/12/27 00:08:56;;;;;;;25.10;13.85;;;9.30;99.90;;;9.51;92.82;101916.59;4895626;29;20047;-69
2023/12/27 00:11:25;;;;;;;24.05;13.13;;;9.30;99.90;;;9.50;92.39;101914.81;4894511;29;20045;-69
2023/12/27 00:13:53;;;;;;;28.17;14.25;;;9.30;99.90;;;9.56;92.21;101909.63;4895564;29;20040;-69
2023/12/27 00:16:21;;;;;;;21.27;13.15;;;9.30;99.90;;;9.57;92.20;101906.13;4895997;29;20140;-71
2023/12/27 00:18:50;;;;;;;25.70;13.57;;;9.30;99.90;;;9.55;91.64;101910.50;4899491;29;20060;-70
2023/12/27 00:21:18;;;;;;;27.77;13.98;;;9.30;99.90;;;9.51;91.75;101911.31;4899436;29;20156;-71
2023/12/27 00:23:47;;;;;;;24.42;13.85;;;9.30;99.90;;;9.39;92.46;101905.81;4899397;29;20059;-70
2023/12/27 00:26:17;;;;;;;27.48;14.02;;;9.10;99.90;;;9.07;93.51;101913.19;4899865;29;20129;-69
2023/12/27 00:28:52;;;;;;;22.63;13.20;;;8.90;99.90;;;8.66;95.50;101918.50;4899555;29;20036;-68
2023/12/27 00:31:20;;;;;;;24.33;13.68;;;8.50;99.90;;;8.57;96.89;101915.69;4899654;29;20045;-69
2023/12/27 00:33:48;;;;;;;29.05;14.80;;;8.30;99.90;;;8.49;97.69;101910.28;4913728;29;20061;-67
2023/12/27 00:36:20;;;;;;;28.20;12.70;;;8.20;99.90;;;8.38;98.44;101898.59;4899213;29;20056;-68
2023/12/27 00:38:48;;;;;;;30.90;14.75;;;8.10;99.90;;;8.48;99.45;101907.59;4899187;29;20052;-69
2023/12/27 00:41:18;;;;;;;28.75;14.50;;;8.10;99.90;;;8.66;99.45;101897.41;4897764;29;20063;-67
2023/12/27 00:43:46;;;;;;;31.47;14.80;;;8.30;99.90;;;8.67;99.32;101897.44;4899203;29;20052;-68
2023/12/27 00:46:15;;;;;;;29.98;15.27;;;8.40;99.90;;;8.78;98.74;101897.66;4899170;29;20072;-68
2023/12/27 00:48:43;;;;;;;29.27;14.63;;;8.50;99.90;;;8.92;98.25;101902.31;4899065;29;20505;-69
2023/12/27 00:51:19;;;;;;;29.23;14.65;;;8.70;99.90;;;9.05;98.08;101900.81;4898914;29;20052;-68
2023/12/27 00:53:48;;;;;;;33.00;16.02;;;8.80;99.90;;;9.01;97.84;101894.59;4898848;29;20155;-68
2023/12/27 00:56:18;;;;;;;29.67;15.30;;;8.80;99.90;;;8.99;97.47;101891.03;4899039;29;20060;-68
2023/12/27 00:58:46;;;;;;;28.10;14.37;;;8.80;99.90;;;8.57;98.35;101877.03;4899171;29;20063;-68
2023/12/27 01:01:15;;;;;;;30.90;14.85;;;8.40;99.90;;;8.27;99.76;101870.22;4913240;29;20356;-68
2023/12/27 01:03:43;;;;;;;24.35;13.85;;;8.10;99.90;;;8.33;100.00;101867.72;4898705;29;20052;-69
2023/12/27 01:06:12;;;;;;;31.45;15.30;;;8.10;99.90;;;7.93;100.00;101876.50;4898597;29;20076;-68
2023/12/27 01:08:41;;;;;;;24.50;14.00;;;7.80;99.90;;;8.07;100.00;101882.97;4898600;29;20131;-67
2023/12/27 01:11:09;;;;;;;26.92;14.75;;;7.80;99.90;;;8.11;100.00;101877.78;4897697;29;20120;-69
2023/12/27 01:13:39;;;;;;;26.58;14.57;;;7.80;99.90;;;8.17;100.00;101891.09;4899092;29;20048;-67
2023/12/27 01:16:07;;;;;;;24.90;14.30;;;7.90;99.90;;;8.17;100.00;101891.09;4898488;29;20052;-67
2023/12/27 01:18:36;;;;;;;32.50;15.35;;;7.90;99.90;;;8.18;100.00;101894.63;4898488;29;20289;-67
2023/12/27 01:21:05;;;;;;;30.67;14.43;;;7.90;99.90;;;8.23;100.00;101892.97;4898632;29;20076;-69
2023/12/27 01:23:33;;;;;;;31.40;15.02;;;8.00;99.90;;;8.12;100.00;101882.22;4897335;29;20080;-69
2023/12/27 01:26:02;;;;;;;29.88;14.35;;;7.90;99.90;;;8.20;100.00;101893.81;4912834;29;20056;-69
2023/12/27 01:28:32;;;;;;;28.60;14.82;;;7.90;99.90;;;8.06;100.00;101897.88;4928741;29;20056;-69
2023/12/27 01:31:02;;;;;;;29.35;15.50;;;7.80;99.90;;;8.32;100.00;101889.69;4912717;29;20045;-69
2023/12/27 01:33:31;;;;;;;;;;;8.00;99.90;;;8.25;100.00;101882.47;4898907;29;20045;-68
2023/12/27 01:36:06;;;;;;;26.20;14.32;;;8.20;99.90;;;8.41;100.00;101895.13;4928516;29;19945;-68
2023/12/27 01:38:34;;;;;;;26.70;14.77;;;8.20;99.90;;;8.38;100.00;101880.13;4898178;29;20071;-69
2023/12/27 01:41:05;;;;;;;29.45;14.90;;;8.20;99.90;;;8.11;100.00;101880.41;4896887;29;20044;-68
2023/12/27 01:43:33;;;;;;;26.27;12.88;;;8.00;99.90;;;7.87;100.00;101864.09;4896808;29;20059;-68
2023/12/27 01:46:03;;;;;;;30.00;14.10;;;7.70;99.90;;;7.75;100.00;101868.16;4912655;29;20451;-69
2023/12/27 01:48:32;;;;;;;32.53;13.88;;;7.60;99.90;;;7.28;100.00;101844.25;4898207;29;20411;-68
2023/12/27 01:51:01;;;;;;;27.48;14.38;;;7.30;99.90;;;7.32;100.00;101867.16;4912471;29;20418;-68
2023/12/27 01:53:30;;;;;;;28.83;14.38;;;7.20;99.90;;;7.35;100.00;101871.63;4928351;29;20049;-69
2023/12/27 01:56:01;;;;;;;29.42;13.90;;;7.10;99.90;;;7.35;100.00;101861.09;4896509;29;20052;-68
2023/12/27 01:58:29;;;;;;;29.57;14.50;;;7.10;99.90;;;7.42;100.00;101868.28;4897719;29;20449;-68
2023/12/27 02:00:59;;;;;;;27.55;13.30;;;7.20;99.90;;;7.19;100.00;101870.34;4896718;29;20312;-68
2023/12/27 02:03:29;;;;;;;26.90;12.93;;;7.00;99.90;;;7.18;100.00;101863.28;4928079;29;20048;-68
2023/12/27 02:06:00;;;;;;;27.58;13.38;;;7.00;99.90;;;7.35;100.00;101861.09;4897970;29;20300;-67
2023/12/27 02:08:30;;;;;;;29.60;14.10;;;7.10;99.90;;;7.38;100.00;101855.88;4897671;29;20045;-67
2023/12/27 02:10:58;;;;;;;25.00;13.73;;;7.20;99.90;;;7.37;100.00;101862.03;4897507;29;20091;-69
2023/12/27 02:13:27;;;;;;;26.30;13.50;;;7.20;99.90;;;7.58;100.00;101865.16;4912186;29;20052;-67
2023/12/27 02:15:56;;;;;;;31.38;14.25;;;7.30;99.90;;;7.74;100.00;101859.38;4911967;29;20044;-68
2023/12/27 02:18:25;;;;;;;34.63;15.15;;;7.50;99.90;;;7.64;100.00;101872.31;4897061;29;20088;-68
2023/12/27 02:20:56;;;;;;;26.58;12.85;;;7.50;99.90;;;7.87;100.00;101873.72;4897149;29;20064;-68
2023/12/27 02:23:26;;;;;;;31.60;12.93;;;7.60;99.90;;;7.83;100.00;101859.59;4897402;29;20053;-69
2023/12/27 02:25:56;;;;;;;32.72;14.45;;;7.70;99.90;;;7.92;100.00;101851.91;4896170;29;20562;-70
2023/12/27 02:28:25;;;;;;;28.33;13.15;;;7.70;99.90;;;7.76;100.00;101854.16;4897395;29;20052;-68
2023/12/27 02:30:55;;;;;;;30.42;13.63;;;7.60;99.90;;;7.61;100.00;101852.06;4897175;29;20108;-68
2023/12/27 02:33:23;;;;;;;26.40;13.57;;;7.50;99.90;;;7.75;100.00;101845.38;4897286;29;20131;-69
2023/12/27 02:35:52;;;;;;;28.88;13.88;;;7.50;99.90;;;7.61;100.00;101843.25;4911621;29;20112;-69
2023/12/27 02:38:20;;;;;;;28.77;12.60;;;7.40;99.90;;;7.58;100.00;101845.84;4911565;29;20139;-68
2023/12/27 02:40:49;;;;;;;29.40;12.95;;;7.40;99.90;;;7.53;100.00;101850.13;4910922;29;20086;-68
2023/12/27 02:43:18;;;;;;;23.70;13.30;;;7.30;99.90;;;7.71;100.00;101837.34;4897131;29;20053;-68
2023/12/27 02:45:47;;;;;;;23.83;12.70;;;7.40;99.90;;;7.75;100.00;101828.66;4896986;29;20079;-67
2023/12/27 02:48:16;;;;;;;23.55;13.50;;;7.60;99.90;;;7.74;100.00;101824.28;4911359;29;20063;-69
2023/12/27 02:50:45;;;;;;;25.52;13.00;;;7.50;99.90;;;7.63;100.00;101821.38;4897012;29;20056;-67
2023/12/27 02:53:13;;;;;;;28.40;12.50;;;7.50;99.90;;;7.57;100.00;101809.84;4896746;29;20048;-70
2023/12/27 02:55:41;;;;;;;28.20;13.77;;;7.40;99.90;;;7.59;100.00;101806.38;4911102;29;20135;-68
2023/12/27 02:58:10;;;;;;;27.00;13.90;;;7.40;99.90;;;7.52;100.00;101809.72;4896732;29;20139;-68
2023/12/27 03:00:39;;;;;;;32.33;13.10;;;7.40;99.90;;;7.60;100.00;101778.31;4896630;29;20063;-69
2023/12/27 03:03:08;;;;;;;29.83;13.90;;;7.40;99.90;;;7.75;100.00;101784.81;4896843;29;20065;-68
2023/12/27 03:05:36;;;;;;;27.95;13.32;;;7.50;99.90;;;7.87;100.00;101779.81;4896625;29;20112;-68
2023/12/27 03:08:06;;;;;;;28.83;14.18;;;7.70;99.90;;;7.93;100.00;101779.03;4896690;29;20563;-68
2023/12/27 03:10:34;;;;;;;28.38;13.60;;;7.70;99.90;;;8.06;100.00;101775.78;4896715;29;20439;-70
2023/12/27 03:13:02;;;;;;;28.92;13.98;;;7.90;99.90;;;8.13;100.00;101762.75;4911139;29;20053;-68
2023/12/27 03:15:31;;;;;;;28.15;14.23;;;8.00;99.90;;;8.19;100.00;101778.69;4896150;29;20076;-70
2023/12/27 03:18:01;;;;;;;27.55;15.10;;;8.10;99.90;;;8.09;100.00;101760.94;4911049;29;20056;-67
2023/12/27 03:20:30;;;;;;;39.63;14.48;;;8.00;99.90;;;8.07;100.00;101764.41;4910718;29;20779;-68
2023/12/27 03:22:58;;;;;;;28.13;14.38;;;7.90;99.90;;;7.90;100.00;101753.50;4896354;29;20156;-67
2023/12/27 03:25:26;;;;;;;30.95;15.55;;;7.80;99.90;;;7.07;100.00;101629.75;4910648;29;20041;-68
2023/12/27 03:27:55;;;;;;;34.92;15.98;;;7.60;99.90;;;7.72;100.00;101744.34;4896332;29;20056;-68
2023/12/27 03:30:23;;;;;;;35.58;15.05;;;7.60;99.90;;;7.63;100.00;101746.78;4896316;29;20044;-67
2023/12/27 03:32:52;;;;;;;30.77;15.13;;;7.40;99.90;;;7.68;100.00;101747.78;4896205;29;20162;-67
2023/12/27 03:35:22;;;;;;;32.67;14.68;;;7.50;99.90;;;7.71;100.00;101735.56;4910608;29;20388;-68
2023/12/27 03:37:50;;;;;;;32.53;15.38;;;7.50;99.90;;;7.64;100.00;101736.28;4896137;29;20044;-69
2023/12/27 03:40:18;;;;;;;32.20;16.52;;;7.50;99.90;;;7.53;100.00;101723.75;4896262;29;20135;-67
2023/12/27 03:42:47;;;;;;;35.30;15.73;;;7.40;99.90;;;7.53;100.00;101729.03;4894656;29;20064;-68
2023/12/27 03:45:17;;;;;;;31.15;15.35;;;7.40;99.90;;;7.35;100.00;101718.09;4910680;29;20059;-68
2023/12/27 03:47:46;;;;;;;35.08;16.42;;;7.20;99.90;;;7.28;100.00;101715.31;4895987;29;20053;-68
2023/12/27 03:50:14;;;;;;;34.10;15.93;;;7.10;99.90;;;7.34;100.00;101711.06;4896414;29;20047;-68
2023/12/27 03:52:44;;;;;;;37.75;16.77;;;7.10;99.90;;;7.43;100.00;101692.84;4896383;29;20125;-69
2023/12/27 03:55:13;;;;;;;31.50;15.57;;;7.30;99.90;;;7.42;100.00;101677.88;4895813;29;20056;-69
2023/12/27 03:57:41;;;;;;;34.45;17.15;;;7.30;99.90;;;7.52;100.00;101675.47;4926147;29;20111;-69
2023/12/27 04:00:11;;;;;;;30.15;15.98;;;7.30;99.90;;;7.61;100.00;101669.50;4910640;29;20064;-68
2023/12/27 04:02:40;;;;;;;33.38;16.55;;;7.40;99.90;;;7.79;100.00;101668.16;4926277;29;20071;-69
2023/12/27 04:05:09;;;;;;;42.33;17.38;;;7.60;99.90;;;7.57;100.00;101665.94;4895717;29;20048;-69
2023/12/27 04:07:38;;;;;;;36.40;16.38;;;7.60;99.90;;;7.42;100.00;101676.13;4926004;29;20104;-68
2023/12/27 04:10:08;;;;;;;35.92;17.25;;;7.30;99.90;;;7.43;100.00;101680.56;4896110;29;20426;-69
2023/12/27 04:12:36;;;;;;;;;;;7.30;99.90;;;7.23;100.00;101669.59;4896193;29;20123;-67
2023/12/27 04:15:07;;;;;;;33.67;17.73;;;7.10;99.90;;;7.23;100.00;101664.34;4895633;29;20018;-68
2023/12/27 04:17:35;;;;;;;35.83;16.70;;;7.10;99.90;;;7.11;100.00;101665.81;4926020;29;20068;-67
2023/12/27 04:20:05;;;;;;;41.35;18.70;;;7.00;99.90;;;7.08;100.00;101663.13;4925532;29;20144;-67
2023/12/27 04:22:33;;;;;;;33.17;17.85;;;7.00;99.90;;;7.01;100.00;101653.28;4926042;29;20045;-68
2023/12/27 04:25:03;;;;;;;35.63;17.55;;;6.90;99.90;;;7.20;100.00;101637.97;4910217;29;20139;-68
2023/12/27 04:27:33;;;;;;;36.50;16.17;;;7.00;99.90;;;7.21;100.00;101636.22;4926180;29;20554;-67
2023/12/27 04:30:01;;;;;;;34.42;17.73;;;7.10;99.90;;;7.21;100.00;101639.75;4925937;29;20053;-70
2023/12/27 04:32:30;;;;;;;34.03;16.83;;;7.10;99.90;;;7.24;100.00;101638.91;4895411;29;20044;-68
2023/12/27 04:34:58;;;;;;;34.42;17.42;;;7.10;99.90;;;6.33;100.00;101505.44;4895730;29;20100;-69
2023/12/27 04:37:26;;;;;;;30.98;16.50;;;7.00;99.90;;;7.10;100.00;101637.75;4925930;29;20057;-68
2023/12/27 04:39:55;;;;;;;33.53;16.33;;;7.00;99.90;;;7.07;100.00;101649.06;4910119;29;20052;-68
2023/12/27 04:42:24;;;;;;;31.20;16.45;;;7.00;99.90;;;7.08;100.00;101642.94;4894367;29;20108;-69
2023/12/27 04:44:54;;;;;;;32.95;16.95;;;6.90;99.90;;;7.17;100.00;101629.13;4895404;29;20052;-68
2023/12/27 04:47:22;;;;;;;37.07;17.30;;;7.00;99.90;;;7.10;100.00;101619.31;4895432;29;20057;-69
2023/12/27 04:49:50;;;;;;;31.85;16.77;;;7.00;99.90;;;7.21;100.00;101612.53;4895639;29;20291;-68
2023/12/27 04:52:20;;;;;;;35.78;16.92;;;7.00;99.90;;;7.22;100.00;101606.41;4910092;29;20051;-67
2023/12/27 04:54:48;;;;;;;33.78;16.55;;;7.10;99.90;;;7.20;100.00;101602.88;4909898;29;20131;-68
2023/12/27 04:57:17;;;;;;;39.40;18.33;;;7.10;99.90;;;7.16;100.00;101601.06;4894214;29;20653;-68
2023/12/27 04:59:45;;;;;;;37.35;18.15;;;7.00;99.90;;;7.09;100.00;101591.22;4909569;29;20055;-68
2023/12/27 05:02:15;;;;;;;49.65;18.55;;;7.00;99.90;;;7.16;100.00;101580.00;4925885;29;20048;-69
2023/12/27 05:04:44;;;;;;;42.58;16.75;;;7.00;99.90;;;7.18;100.00;101579.16;4899027;29;20056;-68
2023/12/27 05:07:12;;;;;;;28.00;15.77;;;7.10;99.90;;;7.29;100.00;101587.28;4898806;29;20044;-70
2023/12/27 05:09:41;;;;;;;40.60;16.10;;;7.10;99.90;;;7.12;100.00;101593.94;4913354;29;20040;-69
2023/12/27 05:12:09;;;;;;;35.85;15.63;;;7.00;99.90;;;7.17;100.00;101592.28;4897331;29;20091;-70
2023/12/27 05:14:37;;;;;;;40.50;15.73;;;7.00;99.90;;;7.27;100.00;101594.25;4898773;29;20052;-68
2023/12/27 05:17:06;;;;;;;35.92;16.55;;;7.10;99.90;;;7.34;100.00;101583.00;4898351;29;20037;-68
2023/12/27 05:19:39;;;;;;;32.45;16.13;;;7.20;99.90;;;7.07;100.00;101540.34;4898161;29;20735;-68
2023/12/27 05:22:08;;;;;;;32.83;16.27;;;7.20;99.90;;;7.47;100.00;101585.00;4898392;29;20048;-69
2023/12/27 05:24:37;;;;;;;36.40;16.15;;;7.30;99.90;;;7.47;100.00;101571.84;4898353;29;20125;-69
2023/12/27 05:27:05;;;;;;;30.42;15.85;;;7.30;99.90;;;7.55;100.00;101566.75;4898295;29;20410;-69
2023/12/27 05:29:34;;;;;;;32.42;15.38;;;7.40;99.90;;;7.68;100.00;101566.09;4898864;29;20435;-70
2023/12/27 05:32:02;;;;;;;34.15;15.90;;;7.50;99.90;;;7.62;100.00;101560.72;4898500;29;20049;-70
2023/12/27 05:34:30;;;;;;;28.67;14.68;;;7.40;99.90;;;7.69;100.00;101563.50;4897040;29;20506;-70
2023/12/27 05:37:00;;;;;;;38.80;14.63;;;7.50;99.90;;;7.73;100.00;101561.81;4898103;29;20045;-69
2023/12/27 05:39:28;;;;;;;29.70;14.47;;;7.60;99.90;;;7.85;100.00;101557.66;4898045;29;20471;-68
2023/12/27 05:41:57;;;;;;;33.47;15.80;;;7.70;99.90;;;7.90;100.00;101553.34;4897046;29;20844;-70
2023/12/27 05:44:25;;;;;;;32.83;14.85;;;7.70;99.90;;;8.12;100.00;101555.50;4898374;29;20498;-68
2023/12/27 05:46:54;;;;;;;32.80;13.65;;;7.90;99.90;;;8.32;100.00;101557.59;4912724;29;20512;-70
2023/12/27 05:49:22;;;;;;;37.92;16.02;;;8.10;99.90;;;8.11;100.00;101553.69;4897929;29;20052;-72
2023/12/27 05:51:52;;;;;;;32.85;14.25;;;8.10;99.90;;;7.88;100.00;101522.56;4897798;29;20043;-71
2023/12/27 05:54:21;;;;;;;28.38;14.50;;;8.00;99.90;;;8.20;100.00;101552.97;4897838;29;20111;-72
2023/12/27 05:56:50;;;;;;;32.53;14.50;;;8.10;99.90;;;8.11;100.00;101552.81;4898183;29;20560;-72
2023/12/27 05:59:19;;;;;;;34.25;14.75;;;8.00;99.90;;;7.91;100.00;101541.06;4897886;29;20093;-71
2023/12/27 06:01:48;;;;;;;34.15;13.98;;;7.90;99.90;;;7.95;100.00;101537.63;4912214;29;20471;-72
2023/12/27 06:04:17;;;;;;;36.45;15.65;;;7.90;99.90;;;7.75;100.00;101532.00;4897551;29;20413;-70
2023/12/27 06:06:46;;;;;;;32.80;15.32;;;7.70;99.90;;;7.61;100.00;101533.50;4897662;29;20068;-68
2023/12/27 06:09:14;;;;;;;39.03;15.15;;;7.60;99.90;;;7.75;100.00;101516.22;4897868;29;20068;-68
2023/12/27 06:11:44;;;;;;;36.20;15.77;;;7.60;99.90;;;7.71;100.00;101506.50;4897951;29;20407;-68
2023/12/27 06:14:13;;;;;;;32.35;15.68;;;7.60;99.90;;;7.60;100.00;101509.78;4895506;29;20053;-67
2023/12/27 06:16:42;;;;;;;38.97;14.88;;;7.50;99.90;;;7.49;100.00;101490.28;4897404;29;20055;-68
2023/12/27 06:19:11;;;;;;;30.33;14.75;;;7.40;99.90;;;7.38;100.00;101495.34;4897066;29;20044;-68
2023/12/27 06:21:40;;;;;;;39.33;15.02;;;7.30;99.90;;;7.37;100.00;101480.44;4897879;29;20048;-68
2023/12/27 06:24:09;;;;;;;39.08;15.20;;;7.30;99.90;;;7.37;100.00;101480.44;4897246;29;20040;-67
2023/12/27 06:26:37;;;;;;;31.42;14.18;;;7.20;99.90;;;7.42;100.00;101472.59;4897195;29;20104;-68
2023/12/27 06:29:07;;;;;;;32.83;14.52;;;7.30;99.90;;;7.29;100.00;101469.78;4897218;29;20048;-67
2023/12/27 06:31:35;;;;;;;33.70;14.13;;;7.20;99.90;;;7.31;100.00;101464.53;4897088;29;20048;-68
2023/12/27 06:34:04;;;;;;;43.10;16.90;;;7.20;99.90;;;7.34;100.00;101459.31;4911695;29;20068;-68
2023/12/27 06:36:32;;;;;;;37.97;15.68;;;7.20;99.90;;;7.37;100.00;101440.97;4897384;29;20045;-67
2023/12/27 06:39:01;;;;;;;34.78;16.08;;;7.30;99.90;;;7.39;100.00;101449.78;4897210;29;20040;-69
2023/12/27 06:41:29;;;;;;;34.88;16.23;;;7.30;99.90;;;7.32;100.00;101447.00;4897249;29;20060;-67
2023/12/27 06:43:58;;;;;;;39.45;17.05;;;7.20;99.90;;;7.40;100.00;101448.91;4897350;29;20049;-68
2023/12/27 06:46:28;;;;;;;35.72;16.27;;;7.20;99.90;;;7.39;100.00;101452.41;4897179;29;20076;-67
2023/12/27 06:48:56;;;;;;;35.00;15.18;;;7.20;99.90;;;7.38;100.00;101450.63;4896848;29;20056;-67
2023/12/27 06:51:25;;;;;;;36.20;16.25;;;7.20;99.90;;;7.35;100.00;101445.31;4897066;29;20135;-67
2023/12/27 06:53:53;;;;;;;32.13;15.40;;;7.20;99.90;;;7.32;100.00;101450.50;4896788;29;20049;-67
2023/12/27 06:56:22;;;;;;;31.40;15.20;;;7.20;99.90;;;7.41;100.00;101440.16;4896670;29;20112;-67
2023/12/27 06:58:50;;;;;;;28.00;15.68;;;7.20;99.90;;;7.40;100.00;101438.38;4896736;29;20455;-67
2023/12/27 07:01:19;;;;;;;30.17;15.65;;;7.30;99.90;;;7.45;100.00;101435.84;4896545;29;20052;-68
2023/12/27 07:03:49;;;;;;;24.63;13.15;;;7.30;99.90;;;7.43;100.00;101435.81;4896469;29;20052;-67
2023/12/27 07:06:17;;;;;;;21.17;13.83;;;7.30;99.90;;;7.48;100.00;101435.88;4896501;29;20051;-68
2023/12/27 07:08:46;;;;;;;21.52;13.30;;;7.30;99.90;;;7.51;100.00;101439.44;4896472;29;20320;-68
2023/12/27 07:11:18;;;;;;;20.20;12.13;;;7.40;99.90;;;7.53;100.00;101435.09;4896385;29;20059;-68
2023/12/27 07:13:47;;;;;;;21.55;13.30;;;7.40;99.90;;;7.52;100.00;101433.31;4896389;29;20123;-66
2023/12/27 07:16:15;;;;;;;21.15;14.38;;;7.40;99.90;;;7.64;100.00;101433.53;4896576;29;20045;-68
2023/12/27 07:18:44;;;;;;;20.75;12.95;;;7.40;99.90;;;7.55;100.00;101419.34;4896293;29;20055;-67
2023/12/27 07:21:15;;;;;;;18.90;13.55;;;7.50;99.90;;;7.62;100.00;101422.09;4896080;29;20072;-66
2023/12/27 07:23:43;;;;;;;17.90;14.18;;;7.50;99.90;;;7.64;100.00;101420.38;4896249;29;20390;-67
2023/12/27 07:26:15;;;;;;;19.17;13.63;;;7.50;99.90;;;7.67;100.00;101404.63;4910596;29;20037;-67
2023/12/27 07:28:43;;;;;;;17.35;12.80;;;7.60;99.90;;;7.71;100.00;101409.06;4896316;29;20052;-67
2023/12/27 07:31:12;;;;;;;18.60;13.30;;;7.60;99.90;;;7.72;100.00;101410.84;4896200;29;20067;-66
2023/12/27 07:33:41;;;;;;;19.88;12.95;;;7.60;99.90;;;7.78;100.00;101410.94;4896456;29;20052;-67
2023/12/27 07:36:09;;;;;;;16.27;13.55;;;7.60;99.90;;;7.80;100.00;101409.19;4895973;29;20494;-66
2023/12/27 07:38:39;;;;;;;17.67;12.85;;;7.70;99.90;;;7.98;100.00;101403.31;4896201;29;20096;-67
2023/12/27 07:41:08;;;;;;;17.33;13.48;;;7.80;99.90;;;8.03;100.00;101412.19;4895969;29;20071;-67
2023/12/27 07:43:36;;;;;;;13.57;12.18;;;7.90;99.90;;;8.08;100.00;101415.78;4895996;29;20053;-67
2023/12/27 07:46:04;;;;;;;13.90;12.50;;;7.90;99.90;;;8.08;100.00;101421.03;4895940;29;20048;-66
2023/12/27 07:48:33;;;;;;;13.20;11.80;;;8.00;99.90;;;8.11;100.00;101405.25;4895811;29;20529;-67
2023/12/27 07:51:03;;;;;;;13.93;12.48;;;8.00;99.90;;;8.06;100.00;101404.31;4894810;29;20072;-67
2023/12/27 07:53:32;;;;;;;;;;;8.00;99.90;;;8.15;100.00;101397.44;4926558;29;20080;-67
2023/12/27 07:56:02;;;;;;;15.30;12.50;;;8.00;99.90;;;8.21;100.00;101407.16;4896272;29;19939;-68
2023/12/27 07:58:31;;;;;;;13.73;12.10;;;8.10;99.90;;;8.25;100.00;101393.22;4895768;29;20052;-68
2023/12/27 08:00:59;;;;;;;14.52;13.13;;;8.10;99.90;;;8.32;100.00;101387.16;4895780;29;20446;-67
2023/12/27 08:03:27;;;;;;;16.33;13.93;;;8.20;99.90;;;7.87;100.00;101311.00;4896076;29;20049;-67
2023/12/27 08:05:56;;;;;;;15.98;14.38;;;8.20;99.90;;;8.23;100.00;101374.72;4895857;29;20045;-68
2023/12/27 08:08:25;;;;;;;16.65;14.95;;;8.20;99.90;;;8.26;100.00;101375.66;4895801;29;20404;-67
2023/12/27 08:10:53;;;;;;;20.75;17.42;;;8.10;99.90;;;8.29;100.00;101365.13;4895694;29;20451;-67
2023/12/27 08:13:23;;;;;;;19.90;17.75;;;8.10;99.90;;;8.34;100.00;101366.09;4896008;29;20097;-67
2023/12/27 08:15:51;;;;;;;21.98;19.58;;;8.20;99.90;;;8.32;100.00;101347.66;4910208;29;20053;-67
2023/12/27 08:18:19;;;;;;;23.45;20.98;;;8.20;99.90;;;8.35;100.00;101352.03;4895510;29;20052;-67
2023/12/27 08:20:48;;;;;;;23.25;20.55;;;8.20;99.90;;;8.43;100.00;101366.19;4895637;29;20052;-68
2023/12/27 08:23:17;;;;;;;24.10;21.48;;;8.30;99.90;;;8.45;100.00;101340.75;4895439;29;20537;-68
2023/12/27 08:25:45;;;;;;;27.10;23.05;;;8.40;99.90;;;8.48;100.00;101340.81;4895664;29;20056;-68
2023/12/27 08:28:15;;;;;;;29.48;23.10;;;8.40;99.90;;;8.62;100.00;101344.44;4895379;29;20032;-67
2023/12/27 08:30:46;;;;;;;31.53;26.13;;;8.50;99.90;;;8.12;100.00;101251.63;4895756;29;20053;-68
2023/12/27 08:33:15;;;;;;;30.65;25.58;;;8.50;99.90;;;8.69;100.00;101349.81;4925785;29;20787;-67
2023/12/27 08:35:43;;;;;;;33.72;27.42;;;8.60;99.90;;;8.78;100.00;101336.75;4895482;29;20048;-68
2023/12/27 08:38:12;;;;;;;36.17;27.77;;;8.70;99.90;;;8.68;100.00;101318.16;4896890;29;20060;-68
2023/12/27 08:40:40;;;;;;;36.47;28.77;;;8.60;99.90;;;8.64;100.00;101293.50;4898993;29;20487;-67
2023/12/27 08:43:08;;;;;;;38.65;28.85;;;8.60;99.90;;;8.74;100.00;101320.84;4898936;29;20131;-68
2023/12/27 08:45:37;;;;;;;44.45;30.52;;;8.60;99.90;;;8.81;100.00;101333.22;4899121;29;20048;-69
2023/12/27 08:48:07;;;;;;;40.38;29.45;;;8.60;99.90;;;8.86;100.00;101336.81;4899205;29;20459;-67
2023/12/27 08:50:36;;;;;;;;;;;8.70;99.90;;;8.88;100.00;101324.53;4899454;29;20051;-67
2023/12/27 08:53:05;;;;;;;37.13;29.17;;;8.80;99.90;;;8.96;100.00;101307.03;4898863;29;19923;-68
2023/12/27 08:55:33;;;;;;;42.35;30.63;;;8.80;99.90;;;9.05;100.00;101302.72;4898786;29;20104;-67
2023/12/27 08:58:02;;;;;;;45.63;31.67;;;8.90;99.90;;;9.06;100.00;101317.66;4898862;29;20048;-68
2023/12/27 09:00:31;;;;;;;45.47;32.67;;;8.90;99.90;;;9.16;100.00;101309.81;4898969;29;20037;-68
2023/12/27 09:02:59;;;;;;;46.58;33.15;;;9.00;99.90;;;9.24;100.00;101302.84;4899247;29;20088;-68
2023/12/27 09:05:29;;;;;;;47.03;32.42;;;9.10;99.90;;;9.21;100.00;101298.44;4898907;29;20134;-68
2023/12/27 09:07:58;;;;;;;42.05;31.30;;;9.10;99.90;;;9.35;100.00;101301.19;4898664;29;20055;-68
2023/12/27 09:10:26;;;;;;;44.22;31.02;;;9.20;99.90;;;9.35;100.00;101302.03;4898853;29;20127;-68
2023/12/27 09:12:55;;;;;;;41.80;31.52;;;9.20;99.90;;;9.47;100.00;101301.25;4913273;29;20056;-68
2023/12/27 09:15:23;;;;;;;41.72;32.08;;;9.30;99.90;;;9.56;100.00;101307.47;4928772;29;20048;-67
2023/12/27 09:17:54;;;;;;;;;;;9.40;99.90;;;9.59;100.00;101310.16;4899567;29;20087;-67
2023/12/27 09:20:23;;;;;;;46.85;28.48;;;9.50;99.90;;;9.56;100.00;101309.25;4898333;29;19923;-68
2023/12/27 09:22:52;;;;;;;44.97;30.23;;;9.50;99.90;;;9.58;100.00;101289.88;4898442;29;20056;-68
2023/12/27 09:25:21;;;;;;;39.88;30.13;;;9.50;99.90;;;9.75;100.00;101282.06;4928710;29;20049;-68
2023/12/27 09:27:49;;;;;;;40.42;28.50;;;9.60;99.90;;;9.78;100.00;101288.25;4912685;29;20100;-68
2023/12/27 09:30:18;;;;;;;43.88;29.00;;;9.60;99.90;;;9.84;100.00;101288.28;4898767;29;20557;-69
2023/12/27 09:32:48;;;;;;;38.10;28.00;;;9.70;99.90;;;9.86;100.00;101273.34;4897275;29;20049;-68
2023/12/27 09:35:17;;;;;;;37.30;26.67;;;9.70;99.90;;;9.86;100.00;101264.50;4898216;29;20052;-68
2023/12/27 09:37:45;;;;;;;34.63;27.60;;;9.80;99.90;;;9.97;100.00;101276.91;4898142;29;20043;-68
2023/12/27 09:40:15;;;;;;;36.47;25.85;;;9.80;99.90;;;9.97;100.00;101270.72;4897997;29;20072;-68
2023/12/27 09:42:47;;;;;;;35.25;23.80;;;9.90;99.90;;;10.04;100.00;101265.47;4898073;29;20052;-68
2023/12/27 09:45:17;;;;;;;30.55;24.48;;;9.90;99.90;;;10.07;100.00;101266.34;4898364;29;20041;-68
2023/12/27 09:47:46;;;;;;;37.13;23.38;;;10.00;99.90;;;10.10;100.00;101277.88;4898394;29;20395;-67
2023/12/27 09:50:15;;;;;;;31.20;23.85;;;10.00;99.90;;;10.26;100.00;101273.53;4898103;29;20045;-68
2023/12/27 09:52:45;;;;;;;32.78;23.88;;;10.10;99.90;;;10.33;100.00;101262.09;4897777;29;20044;-68
2023/12/27 09:55:15;;;;;;;26.77;21.25;;;10.20;99.90;;;10.38;100.00;101273.56;4928306;29;20562;-69
2023/12/27 09:57:44;;;;;;;29.48;21.38;;;10.20;99.90;;;10.44;100.00;101270.94;4897802;29;20049;-68
2023/12/27 10:00:14;;;;;;;30.85;21.20;;;10.30;99.90;;;10.45;100.00;101270.06;4897628;29;20053;-69
2023/12/27 10:02:44;;;;;;;26.70;19.65;;;10.30;99.90;;;10.54;100.00;101251.56;4897719;29;20051;-68
2023/12/27 10:05:22;;;;;;;22.95;19.27;;;10.40;99.90;;;10.56;100.00;101250.69;4897819;29;20048;-67
2023/12/27 10:07:52;;;;;;;25.10;19.15;;;10.40;99.90;;;10.62;100.00;101263.94;4912128;29;20048;-69
2023/12/27 10:10:22;;;;;;;25.63;19.30;;;10.50;99.90;;;10.67;100.00;101280.69;4897560;29;20447;-68
2023/12/27 10:12:56;;;;;;;23.95;18.40;;;10.50;99.90;;;10.65;100.00;101248.06;4927992;29;20506;-68
2023/12/27 10:15:25;;;;;;;28.73;18.10;;;10.50;99.90;;;10.67;100.00;101243.66;4897523;29;20044;-68